createdAt,value
2017-09-27T00:01:15.957Z,24.33
2017-09-27T00:03:43.652Z,25.27
2017-09-27T00:06:11.330Z,24.90
2017-09-27T00:08:39.013Z,24.30
2017-09-27T00:11:06.697Z,25.63
2017-09-27T00:13:34.383Z,26.80
2017-09-27T00:16:02.126Z,26.20
2017-09-27T00:18:29.817Z,24.83
2017-09-27T00:20:57.578Z,24.67
2017-09-27T00:23:25.265Z,23.33
2017-09-27T00:25:53.025Z,26.20
2017-09-27T00:28:20.725Z,25.23
2017-09-27T00:30:48.472Z,23.53
2017-09-27T00:33:16.178Z,26.50
2017-09-27T00:35:43.933Z,24.07
2017-09-27T00:38:11.640Z,26.10
2017-09-27T00:40:39.372Z,25.67
2017-09-27T00:43:07.137Z,24.37
2017-09-27T00:45:34.905Z,23.23
2017-09-27T00:48:02.636Z,24.70
2017-09-27T00:50:30.388Z,24.37
2017-09-27T00:52:58.107Z,24.93
2017-09-27T00:55:25.881Z,25.23
2017-09-27T00:57:53.572Z,26.30
2017-09-27T01:00:21.308Z,26.43
2017-09-27T01:02:49.007Z,25.43
2017-09-27T01:05:16.755Z,25.13
2017-09-27T01:07:44.438Z,24.60
2017-09-27T01:10:13.121Z,25.90
2017-09-27T01:12:40.808Z,25.00
2017-09-27T01:15:08.544Z,24.37
2017-09-27T01:17:36.242Z,26.13
2017-09-27T01:20:03.980Z,25.27
2017-09-27T01:22:31.676Z,25.43
2017-09-27T01:25:00.303Z,26.03
2017-09-27T01:27:27.992Z,26.43
2017-09-27T01:29:55.740Z,25.70
2017-09-27T01:32:23.440Z,26.13
2017-09-27T01:34:51.190Z,26.90
2017-09-27T01:37:18.904Z,26.33
2017-09-27T01:39:46.588Z,27.67
2017-09-27T01:42:14.337Z,26.80
2017-09-27T01:44:42.130Z,27.57
2017-09-27T01:47:09.867Z,25.93
2017-09-27T01:49:37.569Z,27.97
2017-09-27T01:52:05.326Z,25.07
2017-09-27T01:54:33.235Z,27.60
2017-09-27T01:57:00.984Z,26.80
2017-09-27T01:59:28.625Z,26.40
2017-09-27T02:01:56.383Z,26.53
2017-09-27T02:04:24.086Z,26.17
2017-09-27T02:06:51.764Z,27.40
2017-09-27T02:09:19.409Z,26.53
2017-09-27T02:11:47.154Z,28.40
2017-09-27T02:14:14.834Z,27.13
2017-09-27T02:16:42.585Z,27.80
2017-09-27T02:19:10.293Z,27.87
2017-09-27T02:21:38.045Z,26.90
2017-09-27T02:24:05.740Z,28.70
2017-09-27T02:26:33.520Z,28.50
2017-09-27T02:29:01.210Z,27.77
2017-09-27T02:31:28.952Z,27.90
2017-09-27T02:33:56.641Z,27.77
2017-09-27T02:36:24.411Z,27.87
2017-09-27T02:38:52.108Z,27.93
2017-09-27T02:41:19.843Z,28.83
2017-09-27T02:43:47.473Z,28.17
2017-09-27T02:46:15.214Z,27.97
2017-09-27T02:48:42.845Z,28.37
2017-09-27T02:51:10.581Z,29.10
2017-09-27T02:53:38.278Z,28.60
2017-09-27T02:56:06.004Z,28.10
2017-09-27T02:58:33.699Z,28.43
2017-09-27T03:01:01.444Z,28.50
2017-09-27T03:03:29.131Z,26.00
2017-09-27T03:05:56.862Z,27.50
2017-09-27T03:08:24.555Z,28.47
2017-09-27T03:10:52.281Z,28.87
2017-09-27T03:13:19.971Z,28.50
2017-09-27T03:15:51.163Z,28.03
2017-09-27T03:18:18.871Z,27.73
2017-09-27T03:20:46.617Z,27.37
2017-09-27T03:23:14.311Z,28.97
2017-09-27T03:25:42.001Z,27.03
2017-09-27T03:28:09.789Z,27.47
2017-09-27T03:30:37.509Z,27.40
2017-09-27T03:33:05.287Z,28.43
2017-09-27T03:35:33.009Z,28.23
2017-09-27T03:38:00.872Z,30.47
2017-09-27T03:40:28.564Z,28.73
2017-09-27T03:42:56.346Z,29.10
2017-09-27T03:45:23.977Z,30.30
2017-09-27T03:47:51.731Z,30.30
2017-09-27T03:50:19.420Z,29.67
2017-09-27T03:52:47.169Z,29.30
2017-09-27T03:55:14.863Z,29.53
2017-09-27T03:57:42.599Z,28.70
2017-09-27T04:00:10.293Z,30.50
2017-09-27T04:02:38.052Z,30.30
2017-09-27T04:05:05.684Z,29.50
2017-09-27T04:07:33.363Z,29.57
2017-09-27T04:10:00.993Z,31.60
2017-09-27T04:12:28.743Z,31.57
2017-09-27T04:14:56.442Z,31.40
2017-09-27T04:17:24.195Z,30.10
2017-09-27T04:19:51.884Z,31.47
2017-09-27T04:22:19.652Z,32.40
2017-09-27T04:24:47.287Z,30.20
2017-09-27T04:27:15.045Z,32.73
2017-09-27T04:29:42.748Z,31.30
2017-09-27T04:32:10.501Z,31.63
2017-09-27T04:34:38.148Z,32.23
2017-09-27T04:37:05.827Z,32.87
2017-09-27T04:39:33.468Z,31.87
2017-09-27T04:42:01.161Z,32.47
2017-09-27T04:44:28.813Z,32.30
2017-09-27T04:46:56.503Z,32.27
2017-09-27T04:49:24.139Z,33.10
2017-09-27T04:51:51.843Z,32.60
2017-09-27T04:54:19.493Z,32.17
2017-09-27T04:56:47.196Z,31.87
2017-09-27T04:59:14.848Z,33.70
2017-09-27T05:01:42.567Z,32.50
2017-09-27T05:04:10.220Z,32.90
2017-09-27T05:06:37.847Z,34.93
2017-09-27T05:09:05.564Z,31.53
2017-09-27T05:11:33.240Z,32.77
2017-09-27T05:14:00.951Z,33.37
2017-09-27T05:16:28.576Z,33.57
2017-09-27T05:18:56.258Z,33.47
2017-09-27T05:21:23.929Z,35.10
2017-09-27T05:23:51.613Z,33.40
2017-09-27T05:26:19.253Z,32.87
2017-09-27T05:28:46.927Z,32.17
2017-09-27T05:31:14.569Z,31.30
2017-09-27T05:33:42.256Z,31.97
2017-09-27T05:36:09.901Z,32.57
2017-09-27T05:38:37.593Z,32.67
2017-09-27T05:41:05.251Z,34.80
2017-09-27T05:43:32.957Z,31.73
2017-09-27T05:46:00.587Z,33.30
2017-09-27T05:48:28.271Z,34.80
2017-09-27T05:50:55.909Z,33.20
2017-09-27T05:53:23.588Z,30.97
2017-09-27T05:55:51.230Z,32.40
2017-09-27T05:58:18.917Z,32.43
2017-09-27T06:00:46.541Z,31.20
2017-09-27T06:03:14.247Z,32.30
2017-09-27T06:05:41.904Z,32.13
2017-09-27T06:08:09.582Z,31.67
2017-09-27T06:10:37.212Z,32.50
2017-09-27T06:13:04.895Z,32.10
2017-09-27T06:15:32.532Z,31.30
2017-09-27T06:18:00.237Z,33.07
2017-09-27T06:20:27.884Z,31.47
2017-09-27T06:22:55.570Z,32.93
2017-09-27T06:25:23.201Z,30.93
2017-09-27T06:27:50.911Z,30.60
2017-09-27T06:30:18.555Z,29.70
2017-09-27T06:32:46.259Z,30.07
2017-09-27T06:35:13.904Z,30.80
2017-09-27T06:37:41.639Z,29.50
2017-09-27T06:40:09.272Z,32.07
2017-09-27T06:42:36.897Z,33.13
2017-09-27T06:45:04.603Z,32.00
2017-09-27T06:47:32.250Z,31.10
2017-09-27T06:49:59.941Z,30.47
2017-09-27T06:52:27.576Z,31.80
2017-09-27T06:54:55.257Z,31.37
2017-09-27T06:57:22.927Z,31.13
2017-09-27T06:59:50.597Z,32.43
2017-09-27T07:02:18.227Z,31.03
2017-09-27T07:04:45.911Z,30.73
2017-09-27T07:07:13.582Z,30.53
2017-09-27T07:09:41.256Z,31.37
2017-09-27T07:12:08.901Z,30.57
2017-09-27T07:14:36.598Z,30.80
2017-09-27T07:17:04.236Z,31.33
2017-09-27T07:19:31.920Z,29.33
2017-09-27T07:21:59.551Z,29.77
2017-09-27T07:24:27.231Z,28.43
2017-09-27T07:26:54.960Z,30.80
2017-09-27T07:29:22.692Z,30.80
2017-09-27T07:31:50.364Z,28.70
2017-09-27T07:34:18.064Z,31.37
2017-09-27T07:36:45.704Z,30.80
2017-09-27T07:39:13.401Z,29.87
2017-09-27T07:41:41.042Z,29.63
2017-09-27T07:44:08.736Z,32.83
2017-09-27T07:46:36.394Z,29.30
2017-09-27T07:49:04.090Z,34.20
2017-09-27T07:54:04.685Z,31.50
2017-09-27T07:56:32.340Z,32.70
2017-09-27T07:59:00.047Z,30.93
2017-09-27T08:01:27.676Z,30.17
2017-09-27T08:03:55.349Z,30.53
2017-09-27T08:06:22.991Z,32.00
2017-09-27T08:08:50.686Z,30.30
2017-09-27T08:11:18.336Z,30.83
2017-09-27T08:13:46.174Z,32.03
2017-09-27T08:16:13.804Z,32.87
2017-09-27T08:18:41.486Z,31.70
2017-09-27T08:21:09.126Z,29.67
2017-09-27T08:23:36.823Z,31.60
2017-09-27T08:26:04.520Z,31.40
2017-09-27T08:28:32.167Z,30.33
2017-09-27T08:30:59.843Z,31.87
2017-09-27T08:33:27.492Z,32.07
2017-09-27T08:35:55.163Z,30.50
2017-09-27T08:38:22.826Z,31.27
2017-09-27T08:40:50.501Z,31.20
2017-09-27T08:43:18.120Z,32.50
2017-09-27T08:45:45.792Z,30.07
2017-09-27T08:48:13.461Z,30.43
2017-09-27T08:50:41.152Z,32.13
2017-09-27T08:53:08.835Z,32.00
2017-09-27T08:55:36.526Z,30.93
2017-09-27T08:58:04.170Z,30.90
2017-09-27T09:00:31.969Z,32.23
2017-09-27T09:02:59.613Z,31.20
2017-09-27T09:05:27.302Z,28.50
2017-09-27T09:07:54.938Z,30.60
2017-09-27T09:10:22.655Z,31.50
2017-09-27T09:12:50.302Z,31.30
2017-09-27T09:15:17.980Z,29.90
2017-09-27T09:17:45.703Z,29.10
2017-09-27T09:20:13.400Z,28.30
2017-09-27T09:22:41.050Z,28.37
2017-09-27T09:25:08.746Z,29.00
2017-09-27T09:27:36.382Z,29.40
2017-09-27T09:30:04.143Z,28.37
2017-09-27T09:32:31.787Z,27.20
2017-09-27T09:34:59.492Z,28.33
2017-09-27T09:37:27.136Z,28.97
2017-09-27T09:39:54.895Z,29.17
2017-09-27T09:42:22.581Z,28.27
2017-09-27T09:44:50.413Z,30.00
2017-09-27T09:47:18.125Z,27.73
2017-09-27T09:49:45.807Z,29.13
2017-09-27T09:52:13.520Z,27.40
2017-09-27T09:54:41.299Z,24.90
2017-09-27T09:57:09.005Z,26.87
2017-09-27T09:59:43.975Z,28.70
2017-09-27T10:02:11.959Z,29.57
2017-09-27T10:04:39.644Z,26.20
2017-09-27T10:07:07.353Z,27.60
2017-09-27T10:09:35.050Z,26.50
2017-09-27T10:12:02.728Z,25.40
2017-09-27T10:14:30.446Z,25.57
2017-09-27T10:16:58.227Z,26.30
2017-09-27T10:19:27.038Z,27.53
2017-09-27T10:21:54.723Z,26.90
2017-09-27T10:24:22.822Z,24.80
2017-09-27T10:26:54.719Z,23.53
2017-09-27T10:29:28.044Z,23.80
2017-09-27T10:31:55.732Z,22.03
2017-09-27T10:34:23.440Z,24.23
2017-09-27T10:36:51.197Z,24.83
2017-09-27T10:39:18.872Z,25.20
2017-09-27T10:41:46.626Z,21.73
2017-09-27T10:44:14.377Z,27.27
2017-09-27T10:46:42.134Z,26.03
2017-09-27T10:49:09.862Z,25.90
2017-09-27T10:51:37.545Z,24.13
2017-09-27T10:54:05.284Z,25.80
2017-09-27T10:56:33.060Z,24.80
2017-09-27T10:59:00.772Z,26.57
2017-09-27T11:01:28.514Z,26.10
2017-09-27T11:03:56.221Z,25.07
2017-09-27T11:06:23.997Z,25.23
2017-09-27T11:08:51.726Z,24.40
2017-09-27T11:11:19.496Z,25.90
2017-09-27T11:13:47.202Z,24.37
2017-09-27T11:16:14.977Z,28.27
2017-09-27T11:18:42.708Z,28.40
2017-09-27T11:21:10.489Z,26.87
2017-09-27T11:23:38.211Z,28.20
2017-09-27T11:26:05.982Z,28.03
2017-09-27T11:28:33.623Z,27.77
2017-09-27T11:31:01.397Z,29.00
2017-09-27T11:33:29.115Z,29.20
2017-09-27T11:35:56.881Z,27.20
2017-09-27T11:38:24.600Z,28.10
2017-09-27T11:40:52.403Z,27.63
2017-09-27T11:43:20.177Z,27.27
2017-09-27T11:45:47.940Z,29.97
2017-09-27T11:48:15.671Z,30.70
2017-09-27T11:50:43.434Z,31.33
2017-09-27T11:53:11.169Z,30.90
2017-09-27T11:55:38.923Z,31.57
2017-09-27T11:58:06.649Z,32.93
2017-09-27T12:00:34.376Z,29.70
2017-09-27T12:03:02.161Z,30.10
2017-09-27T12:05:29.867Z,31.07
2017-09-27T12:07:57.624Z,31.10
2017-09-27T12:10:25.338Z,34.20
2017-09-27T12:12:53.126Z,32.97
2017-09-27T12:15:20.846Z,32.13
2017-09-27T12:17:48.600Z,33.53
2017-09-27T12:20:16.310Z,32.43
2017-09-27T12:22:44.062Z,34.93
2017-09-27T12:25:11.780Z,33.70
2017-09-27T12:27:39.551Z,33.43
2017-09-27T12:30:07.257Z,33.50
2017-09-27T12:32:35.015Z,29.57
2017-09-27T12:35:02.675Z,36.27
2017-09-27T12:37:30.484Z,33.47
2017-09-27T12:39:58.245Z,33.10
2017-09-27T12:42:25.991Z,37.00
2017-09-27T12:44:53.739Z,33.77
2017-09-27T12:47:21.500Z,38.23
2017-09-27T12:49:49.234Z,35.80
2017-09-27T12:52:16.984Z,35.13
2017-09-27T12:54:44.727Z,32.30
2017-09-27T12:57:12.417Z,34.50
2017-09-27T12:59:40.156Z,38.10
2017-09-27T13:02:08.488Z,37.87
2017-09-27T13:04:36.191Z,33.13
2017-09-27T13:07:03.964Z,37.53
2017-09-27T13:09:31.676Z,34.77
2017-09-27T13:11:59.467Z,38.43
2017-09-27T13:14:27.216Z,32.73
2017-09-27T13:16:54.981Z,32.20
2017-09-27T13:19:22.701Z,32.33
2017-09-27T13:21:50.429Z,33.90
2017-09-27T13:24:18.146Z,32.50
2017-09-27T13:26:45.910Z,35.43
2017-09-27T13:29:13.641Z,33.03
2017-09-27T13:31:41.403Z,36.70
2017-09-27T13:34:09.119Z,35.17
2017-09-27T13:36:36.890Z,35.97
2017-09-27T13:39:04.647Z,38.33
2017-09-27T13:41:32.345Z,37.43
2017-09-27T13:44:00.145Z,39.20
2017-09-27T13:46:27.858Z,34.43
2017-09-27T13:48:55.633Z,37.80
2017-09-27T13:51:23.341Z,36.67
2017-09-27T13:53:51.100Z,37.40
2017-09-27T13:56:18.825Z,39.20
2017-09-27T13:58:46.593Z,38.03
2017-09-27T14:01:14.308Z,36.53
2017-09-27T14:03:42.056Z,40.33
2017-09-27T14:06:09.771Z,44.43
2017-09-27T14:08:37.526Z,41.80
2017-09-27T14:11:05.242Z,44.50
2017-09-27T14:13:33.009Z,44.70
2017-09-27T14:16:00.732Z,42.53
2017-09-27T14:18:28.510Z,43.57
2017-09-27T14:20:56.226Z,38.13
2017-09-27T14:23:24.004Z,42.03
2017-09-27T14:25:51.698Z,41.93
2017-09-27T14:28:20.490Z,42.90
2017-09-27T14:30:51.261Z,41.30
2017-09-27T14:33:23.644Z,45.27
2017-09-27T14:35:56.188Z,38.23
2017-09-27T14:38:23.881Z,41.77
2017-09-27T14:40:51.525Z,42.03
2017-09-27T14:43:19.221Z,39.63
2017-09-27T14:45:46.865Z,40.50
2017-09-27T14:48:14.560Z,40.23
2017-09-27T14:50:42.198Z,39.00
2017-09-27T14:53:09.913Z,41.77
2017-09-27T14:55:37.545Z,40.63
2017-09-27T14:58:05.303Z,37.20
2017-09-27T15:00:36.121Z,40.03
2017-09-27T15:03:04.065Z,37.50
2017-09-27T15:05:33.026Z,36.80
2017-09-27T15:08:01.370Z,34.40
2017-09-27T15:10:31.192Z,37.43
2017-09-27T15:13:01.443Z,38.73
2017-09-27T15:15:30.062Z,40.00
2017-09-27T15:17:57.750Z,34.83
2017-09-27T15:20:25.480Z,39.43
2017-09-27T15:22:53.167Z,36.93
2017-09-27T15:25:20.796Z,38.10
2017-09-27T15:27:55.685Z,35.20
2017-09-27T15:30:23.453Z,37.90
2017-09-27T15:32:51.164Z,36.03
2017-09-27T15:35:18.873Z,34.67
2017-09-27T15:37:46.659Z,35.53
2017-09-27T15:40:14.379Z,35.17
2017-09-27T15:42:42.116Z,35.47
2017-09-27T15:45:09.823Z,37.30
2017-09-27T15:47:37.552Z,39.47
2017-09-27T15:50:05.362Z,39.33
2017-09-27T15:52:33.107Z,37.70
2017-09-27T15:55:00.878Z,37.70
2017-09-27T15:57:28.537Z,42.70
2017-09-27T15:59:56.297Z,41.90
2017-09-27T16:02:24.004Z,47.90
2017-09-27T16:04:51.741Z,42.23
2017-09-27T16:07:19.458Z,43.93
2017-09-27T16:09:47.253Z,49.70
2017-09-27T16:12:14.963Z,41.87
2017-09-27T16:14:42.722Z,40.83
2017-09-27T16:17:10.407Z,40.17
2017-09-27T16:19:38.167Z,41.23
2017-09-27T16:22:05.885Z,48.17
2017-09-27T16:24:33.636Z,44.13
2017-09-27T16:27:01.340Z,40.53
2017-09-27T16:29:29.089Z,45.47
2017-09-27T16:31:56.805Z,40.93
2017-09-27T16:34:24.521Z,40.40
2017-09-27T16:36:52.164Z,40.93
2017-09-27T16:39:19.866Z,49.90
2017-09-27T16:41:47.500Z,44.73
2017-09-27T16:44:15.193Z,46.33
2017-09-27T16:46:42.859Z,49.80
2017-09-27T16:49:10.581Z,40.50
2017-09-27T16:51:38.218Z,43.10
2017-09-27T16:54:05.916Z,49.10
2017-09-27T16:56:33.561Z,44.43
2017-09-27T16:59:01.255Z,50.20
2017-09-27T17:01:28.904Z,42.23
2017-09-27T17:03:56.591Z,47.20
2017-09-27T17:06:24.224Z,44.50
2017-09-27T17:08:51.897Z,52.83
2017-09-27T17:11:19.552Z,50.33
2017-09-27T17:13:47.244Z,37.90
2017-09-27T17:16:14.883Z,29.23
2017-09-27T17:18:42.517Z,31.27
2017-09-27T17:21:10.195Z,32.33
2017-09-27T17:23:37.915Z,36.20
2017-09-27T17:26:05.688Z,53.03
2017-09-27T17:28:33.383Z,47.90
2017-09-27T17:31:01.134Z,45.90
2017-09-27T17:33:28.767Z,53.47
2017-09-27T17:35:56.537Z,55.00
2017-09-27T17:38:24.257Z,45.43
2017-09-27T17:40:52.012Z,51.37
2017-09-27T17:43:19.747Z,51.07
2017-09-27T17:45:47.492Z,44.90
2017-09-27T17:48:15.188Z,55.27
2017-09-27T17:50:42.960Z,49.07
2017-09-27T17:53:10.670Z,49.13
2017-09-27T17:55:38.432Z,57.93
2017-09-27T17:58:06.124Z,47.40
2017-09-27T18:00:33.852Z,53.43
2017-09-27T18:03:01.483Z,51.03
2017-09-27T18:08:34.107Z,52.67
2017-09-27T18:11:07.681Z,45.83
2017-09-27T18:16:35.758Z,39.30
2017-09-27T18:19:03.667Z,52.37
2017-09-27T18:21:31.572Z,53.03
2017-09-27T18:23:59.250Z,54.63
2017-09-27T18:26:27.073Z,47.13
2017-09-27T18:28:54.827Z,45.70
2017-09-27T18:31:22.614Z,47.60
2017-09-27T18:33:50.363Z,58.63
2017-09-27T18:36:18.157Z,56.37
2017-09-27T18:38:45.951Z,56.03
2017-09-27T18:41:13.767Z,63.67
2017-09-27T18:43:41.587Z,55.83
2017-09-27T18:46:09.271Z,59.80
2017-09-27T18:48:36.995Z,57.33
2017-09-27T18:51:04.766Z,52.10
2017-09-27T18:53:32.484Z,52.27
2017-09-27T18:56:00.326Z,60.27
2017-09-27T18:58:28.080Z,55.53
2017-09-27T19:00:55.857Z,58.23
2017-09-27T19:03:23.612Z,52.73
2017-09-27T19:05:51.395Z,55.03
2017-09-27T19:08:19.128Z,56.33
2017-09-27T19:10:46.884Z,60.50
2017-09-27T19:15:56.178Z,57.53
2017-09-27T19:18:23.830Z,49.33
2017-09-27T19:20:51.510Z,69.83
2017-09-27T19:23:19.181Z,55.60
2017-09-27T19:25:46.859Z,56.50
2017-09-27T19:28:21.122Z,56.67
2017-09-27T19:30:48.921Z,62.83
2017-09-27T19:33:19.291Z,58.20
2017-09-27T19:35:55.792Z,53.80
2017-09-27T19:38:23.483Z,61.93
2017-09-27T19:40:56.176Z,66.50
2017-09-27T19:43:24.146Z,69.57
2017-09-27T19:45:51.873Z,69.47
2017-09-27T19:48:19.545Z,52.23
2017-09-27T19:50:49.685Z,53.10
2017-09-27T19:53:17.313Z,56.27
2017-09-27T19:55:45.004Z,55.73
2017-09-27T19:58:12.639Z,57.77
2017-09-27T20:00:40.398Z,60.80
2017-09-27T20:03:08.089Z,78.47
2017-09-27T20:05:35.795Z,72.80
2017-09-27T20:08:03.542Z,58.97
2017-09-27T20:10:31.362Z,55.77
2017-09-27T20:12:59.140Z,70.07
2017-09-27T20:15:26.936Z,55.87
2017-09-27T20:17:54.693Z,50.90
2017-09-27T20:20:22.410Z,57.67
2017-09-27T20:22:55.069Z,49.33
2017-09-27T20:31:01.352Z,59.10
2017-09-27T20:36:33.725Z,39.17
2017-09-27T20:41:46.672Z,49.37
2017-09-27T20:47:14.339Z,38.43
2017-09-27T20:55:17.401Z,44.57
2017-09-27T20:57:52.969Z,44.80
2017-09-27T21:03:07.204Z,46.37
2017-09-27T21:05:42.895Z,33.97
2017-09-27T21:11:05.985Z,50.10
2017-09-27T21:13:49.110Z,37.53
2017-09-27T21:16:17.673Z,60.20
2017-09-27T21:18:45.306Z,35.30
2017-09-27T21:21:13.010Z,48.50
2017-09-27T21:23:40.725Z,48.23
2017-09-27T21:26:08.507Z,36.77
2017-09-27T21:28:36.281Z,35.63
2017-09-27T21:31:03.915Z,56.37
2017-09-27T21:33:31.673Z,49.30
2017-09-27T21:35:59.380Z,38.17
2017-09-27T21:38:27.119Z,49.60
2017-09-27T21:40:54.808Z,54.90
2017-09-27T21:43:22.590Z,46.17
2017-09-27T21:45:50.318Z,69.77
2017-09-27T21:48:18.067Z,52.67
2017-09-27T21:50:45.702Z,53.50
2017-09-27T21:53:13.460Z,46.47
2017-09-27T21:55:41.099Z,68.43
2017-09-27T21:58:08.835Z,56.67
2017-09-27T22:00:36.468Z,52.73
2017-09-27T22:03:04.218Z,62.13
2017-09-27T22:05:31.918Z,49.27
2017-09-27T22:07:59.683Z,46.77
2017-09-27T22:10:27.372Z,46.10
2017-09-27T22:12:55.170Z,56.70
2017-09-27T22:15:22.878Z,50.90
2017-09-27T22:17:50.616Z,50.43
2017-09-27T22:20:18.297Z,55.33
2017-09-27T22:22:46.052Z,72.97
2017-09-27T22:25:13.768Z,59.80
2017-09-27T22:27:41.510Z,51.30
2017-09-27T22:30:09.159Z,67.97
2017-09-27T22:32:36.904Z,52.33
2017-09-27T22:35:04.594Z,57.13
2017-09-27T22:37:32.346Z,37.53
2017-09-27T22:40:00.048Z,54.50
2017-09-27T22:42:27.833Z,37.23
2017-09-27T22:44:55.589Z,39.60
2017-09-27T22:47:23.324Z,37.03
2017-09-27T22:49:51.021Z,34.20
2017-09-27T22:52:18.764Z,31.90
2017-09-27T22:54:46.458Z,36.70
2017-09-27T22:57:14.204Z,41.17
2017-09-27T22:59:41.903Z,39.70
2017-09-27T23:02:09.633Z,27.67
2017-09-27T23:04:37.347Z,28.57
2017-09-27T23:07:05.091Z,29.13
2017-09-27T23:09:32.803Z,35.60
2017-09-27T23:12:00.511Z,31.97
2017-09-27T23:14:28.245Z,40.13
2017-09-27T23:16:55.953Z,24.97
2017-09-27T23:19:23.694Z,33.97
2017-09-27T23:21:51.385Z,37.60
2017-09-27T23:24:19.110Z,36.07
2017-09-27T23:26:46.811Z,40.07
2017-09-27T23:29:14.552Z,48.20
2017-09-27T23:31:42.238Z,32.33
2017-09-27T23:34:09.984Z,37.23
2017-09-27T23:36:37.680Z,39.03
2017-09-27T23:39:05.452Z,38.80
2017-09-27T23:41:33.161Z,39.47
2017-09-27T23:44:00.949Z,52.07
2017-09-27T23:46:28.657Z,33.40
2017-09-27T23:48:56.409Z,33.00
2017-09-27T23:51:24.120Z,35.07
2017-09-27T23:53:51.873Z,31.27
2017-09-27T23:56:19.571Z,33.07
2017-09-27T23:58:47.312Z,30.27
